sensor_id;sensor_type;location;lat;lon;timestamp;P1;durP1;ratioP1;P2;durP2;ratioP2
69417;SDS011;56610;48.872;2.400;2022-08-20T00:00:35;6.72;;;1.90;;
69417;SDS011;56610;48.872;2.400;2022-08-20T00:05:59;9.38;;;2.47;;
69417;SDS011;56610;48.872;2.400;2022-08-20T00:08:27;5.05;;;1.88;;
69417;SDS011;56610;48.872;2.400;2022-08-20T00:10:53;5.30;;;1.70;;
69417;SDS011;56610;48.872;2.400;2022-08-20T00:13:21;5.15;;;2.00;;
69417;SDS011;56610;48.872;2.400;2022-08-20T00:15:49;7.05;;;1.75;;
69417;SDS011;56610;48.872;2.400;2022-08-20T00:18:15;8.68;;;2.13;;
69417;SDS011;56610;48.872;2.400;2022-08-20T00:20:43;5.93;;;1.67;;
69417;SDS011;56610;48.872;2.400;2022-08-20T00:23:10;8.55;;;2.50;;
69417;SDS011;56610;48.872;2.400;2022-08-20T00:25:36;7.32;;;2.00;;
69417;SDS011;56610;48.872;2.400;2022-08-20T00:28:22;6.18;;;2.05;;
69417;SDS011;56610;48.872;2.400;2022-08-20T00:30:48;7.47;;;2.28;;
69417;SDS011;56610;48.872;2.400;2022-08-20T00:33:17;8.70;;;2.22;;
69417;SDS011;56610;48.872;2.400;2022-08-20T00:35:47;7.78;;;2.38;;
69417;SDS011;56610;48.872;2.400;2022-08-20T00:38:18;9.63;;;2.30;;
69417;SDS011;56610;48.872;2.400;2022-08-20T00:40:46;5.68;;;1.90;;
69417;SDS011;56610;48.872;2.400;2022-08-20T00:43:25;6.35;;;1.80;;
69417;SDS011;56610;48.872;2.400;2022-08-20T00:46:05;6.90;;;2.00;;
69417;SDS011;56610;48.872;2.400;2022-08-20T00:48:53;7.63;;;1.88;;
69417;SDS011;56610;48.872;2.400;2022-08-20T00:53:52;6.63;;;2.08;;
69417;SDS011;56610;48.872;2.400;2022-08-20T00:56:22;6.05;;;2.00;;
69417;SDS011;56610;48.872;2.400;2022-08-20T00:58:48;7.78;;;2.05;;
69417;SDS011;56610;48.872;2.400;2022-08-20T01:01:16;7.53;;;1.98;;
69417;SDS011;56610;48.872;2.400;2022-08-20T01:03:43;10.13;;;2.40;;
69417;SDS011;56610;48.872;2.400;2022-08-20T01:06:08;6.40;;;2.28;;
69417;SDS011;56610;48.872;2.400;2022-08-20T01:08:36;11.05;;;2.10;;
69417;SDS011;56610;48.872;2.400;2022-08-20T01:11:02;8.70;;;2.28;;
69417;SDS011;56610;48.872;2.400;2022-08-20T01:13:38;5.50;;;2.03;;
69417;SDS011;56610;48.872;2.400;2022-08-20T01:16:08;6.85;;;2.08;;
69417;SDS011;56610;48.872;2.400;2022-08-20T01:18:41;13.20;;;2.58;;
69417;SDS011;56610;48.872;2.400;2022-08-20T01:21:08;9.13;;;1.85;;
69417;SDS011;56610;48.872;2.400;2022-08-20T01:23:39;7.72;;;2.33;;
69417;SDS011;56610;48.872;2.400;2022-08-20T01:31:31;9.65;;;2.95;;
69417;SDS011;56610;48.872;2.400;2022-08-20T01:34:01;7.78;;;2.67;;
69417;SDS011;56610;48.872;2.400;2022-08-20T01:36:40;7.63;;;2.10;;
69417;SDS011;56610;48.872;2.400;2022-08-20T01:39:09;8.68;;;2.30;;
69417;SDS011;56610;48.872;2.400;2022-08-20T01:41:54;8.88;;;2.65;;
69417;SDS011;56610;48.872;2.400;2022-08-20T01:44:22;9.30;;;2.70;;
69417;SDS011;56610;48.872;2.400;2022-08-20T01:46:49;11.10;;;2.88;;
69417;SDS011;56610;48.872;2.400;2022-08-20T01:49:19;11.75;;;2.85;;
69417;SDS011;56610;48.872;2.400;2022-08-20T01:51:47;10.93;;;2.42;;
69417;SDS011;56610;48.872;2.400;2022-08-20T01:54:14;11.93;;;2.27;;
69417;SDS011;56610;48.872;2.400;2022-08-20T01:59:43;9.88;;;2.45;;
69417;SDS011;56610;48.872;2.400;2022-08-20T02:02:10;8.57;;;2.53;;
69417;SDS011;56610;48.872;2.400;2022-08-20T02:04:37;12.13;;;3.33;;
69417;SDS011;56610;48.872;2.400;2022-08-20T02:07:05;8.57;;;2.50;;
69417;SDS011;56610;48.872;2.400;2022-08-20T02:09:33;11.88;;;2.55;;
69417;SDS011;56610;48.872;2.400;2022-08-20T02:12:02;11.45;;;2.50;;
69417;SDS011;56610;48.872;2.400;2022-08-20T02:14:30;9.32;;;2.60;;
69417;SDS011;56610;48.872;2.400;2022-08-20T02:16:56;8.32;;;2.40;;
69417;SDS011;56610;48.872;2.400;2022-08-20T02:22:06;9.50;;;2.50;;
69417;SDS011;56610;48.872;2.400;2022-08-20T02:24:40;10.98;;;2.30;;
69417;SDS011;56610;48.872;2.400;2022-08-20T02:27:07;12.00;;;2.73;;
69417;SDS011;56610;48.872;2.400;2022-08-20T02:29:33;10.23;;;2.38;;
69417;SDS011;56610;48.872;2.400;2022-08-20T02:31:59;12.13;;;2.60;;
69417;SDS011;56610;48.872;2.400;2022-08-20T02:34:25;12.23;;;3.33;;
69417;SDS011;56610;48.872;2.400;2022-08-20T02:36:50;9.73;;;2.63;;
69417;SDS011;56610;48.872;2.400;2022-08-20T02:39:16;9.13;;;2.28;;
69417;SDS011;56610;48.872;2.400;2022-08-20T02:41:42;8.40;;;2.63;;
69417;SDS011;56610;48.872;2.400;2022-08-20T02:44:08;12.60;;;2.80;;
69417;SDS011;56610;48.872;2.400;2022-08-20T02:46:33;10.63;;;2.53;;
69417;SDS011;56610;48.872;2.400;2022-08-20T02:48:59;10.70;;;2.53;;
69417;SDS011;56610;48.872;2.400;2022-08-20T02:51:25;10.57;;;2.70;;
69417;SDS011;56610;48.872;2.400;2022-08-20T02:53:51;12.15;;;2.60;;
69417;SDS011;56610;48.872;2.400;2022-08-20T02:56:17;10.52;;;3.00;;
69417;SDS011;56610;48.872;2.400;2022-08-20T02:58:43;7.82;;;2.47;;
69417;SDS011;56610;48.872;2.400;2022-08-20T03:01:10;8.25;;;2.10;;
69417;SDS011;56610;48.872;2.400;2022-08-20T03:03:38;7.68;;;2.20;;
69417;SDS011;56610;48.872;2.400;2022-08-20T03:06:05;8.50;;;2.35;;
69417;SDS011;56610;48.872;2.400;2022-08-20T03:08:32;9.35;;;2.72;;
69417;SDS011;56610;48.872;2.400;2022-08-20T03:10:58;9.35;;;2.65;;
69417;SDS011;56610;48.872;2.400;2022-08-20T03:13:23;9.20;;;2.70;;
69417;SDS011;56610;48.872;2.400;2022-08-20T03:15:51;9.23;;;2.72;;
69417;SDS011;56610;48.872;2.400;2022-08-20T03:18:19;9.88;;;2.45;;
69417;SDS011;56610;48.872;2.400;2022-08-20T03:20:45;7.53;;;2.50;;
69417;SDS011;56610;48.872;2.400;2022-08-20T03:23:12;13.45;;;3.13;;
69417;SDS011;56610;48.872;2.400;2022-08-20T03:25:38;9.20;;;2.50;;
69417;SDS011;56610;48.872;2.400;2022-08-20T03:28:04;8.50;;;2.70;;
69417;SDS011;56610;48.872;2.400;2022-08-20T03:30:30;10.25;;;2.50;;
69417;SDS011;56610;48.872;2.400;2022-08-20T03:32:56;6.82;;;2.40;;
69417;SDS011;56610;48.872;2.400;2022-08-20T03:35:24;8.70;;;2.17;;
69417;SDS011;56610;48.872;2.400;2022-08-20T03:37:51;9.07;;;2.50;;
69417;SDS011;56610;48.872;2.400;2022-08-20T03:40:19;10.70;;;2.40;;
69417;SDS011;56610;48.872;2.400;2022-08-20T03:42:48;8.40;;;2.42;;
69417;SDS011;56610;48.872;2.400;2022-08-20T03:45:13;9.73;;;2.15;;
69417;SDS011;56610;48.872;2.400;2022-08-20T03:47:40;10.23;;;2.33;;
69417;SDS011;56610;48.872;2.400;2022-08-20T03:50:07;11.00;;;2.55;;
69417;SDS011;56610;48.872;2.400;2022-08-20T03:52:35;8.30;;;2.33;;
69417;SDS011;56610;48.872;2.400;2022-08-20T03:55:01;9.70;;;2.25;;
69417;SDS011;56610;48.872;2.400;2022-08-20T03:57:28;11.68;;;2.83;;
69417;SDS011;56610;48.872;2.400;2022-08-20T03:59:54;8.95;;;2.25;;
69417;SDS011;56610;48.872;2.400;2022-08-20T04:02:20;8.35;;;2.00;;
69417;SDS011;56610;48.872;2.400;2022-08-20T04:04:46;7.50;;;2.03;;
69417;SDS011;56610;48.872;2.400;2022-08-20T04:07:13;9.10;;;2.30;;
69417;SDS011;56610;48.872;2.400;2022-08-20T04:09:40;12.13;;;2.95;;
69417;SDS011;56610;48.872;2.400;2022-08-20T04:12:07;11.23;;;2.90;;
69417;SDS011;56610;48.872;2.400;2022-08-20T04:14:36;9.70;;;2.63;;
69417;SDS011;56610;48.872;2.400;2022-08-20T04:19:54;7.93;;;2.40;;
69417;SDS011;56610;48.872;2.400;2022-08-20T04:22:19;10.15;;;2.50;;
69417;SDS011;56610;48.872;2.400;2022-08-20T04:24:45;10.30;;;2.30;;
69417;SDS011;56610;48.872;2.400;2022-08-20T04:27:10;11.10;;;2.50;;
69417;SDS011;56610;48.872;2.400;2022-08-20T04:29:38;10.43;;;2.92;;
69417;SDS011;56610;48.872;2.400;2022-08-20T04:32:07;10.55;;;2.63;;
69417;SDS011;56610;48.872;2.400;2022-08-20T04:34:32;12.63;;;3.13;;
69417;SDS011;56610;48.872;2.400;2022-08-20T04:36:58;9.48;;;2.50;;
69417;SDS011;56610;48.872;2.400;2022-08-20T04:39:24;12.18;;;3.03;;
69417;SDS011;56610;48.872;2.400;2022-08-20T04:41:50;10.73;;;2.60;;
69417;SDS011;56610;48.872;2.400;2022-08-20T04:44:16;12.20;;;2.92;;
69417;SDS011;56610;48.872;2.400;2022-08-20T04:46:41;10.30;;;2.80;;
69417;SDS011;56610;48.872;2.400;2022-08-20T04:49:07;10.20;;;3.25;;
69417;SDS011;56610;48.872;2.400;2022-08-20T04:51:33;8.95;;;2.40;;
69417;SDS011;56610;48.872;2.400;2022-08-20T04:54:00;11.63;;;2.53;;
69417;SDS011;56610;48.872;2.400;2022-08-20T04:56:28;13.18;;;3.33;;
69417;SDS011;56610;48.872;2.400;2022-08-20T04:58:57;9.25;;;2.80;;
69417;SDS011;56610;48.872;2.400;2022-08-20T05:01:24;10.02;;;2.50;;
69417;SDS011;56610;48.872;2.400;2022-08-20T05:03:50;8.57;;;2.50;;
69417;SDS011;56610;48.872;2.400;2022-08-20T05:06:21;9.68;;;2.47;;
69417;SDS011;56610;48.872;2.400;2022-08-20T05:08:49;8.18;;;2.40;;
69417;SDS011;56610;48.872;2.400;2022-08-20T05:11:14;9.50;;;2.65;;
69417;SDS011;56610;48.872;2.400;2022-08-20T05:13:40;10.27;;;3.20;;
69417;SDS011;56610;48.872;2.400;2022-08-20T05:16:06;9.85;;;2.42;;
69417;SDS011;56610;48.872;2.400;2022-08-20T05:18:32;7.72;;;1.90;;
69417;SDS011;56610;48.872;2.400;2022-08-20T05:20:59;8.77;;;2.40;;
69417;SDS011;56610;48.872;2.400;2022-08-20T05:23:30;8.35;;;2.65;;
69417;SDS011;56610;48.872;2.400;2022-08-20T05:26:01;12.82;;;2.72;;
69417;SDS011;56610;48.872;2.400;2022-08-20T05:28:31;9.23;;;2.22;;
69417;SDS011;56610;48.872;2.400;2022-08-20T05:30:59;10.95;;;2.75;;
69417;SDS011;56610;48.872;2.400;2022-08-20T05:33:45;10.93;;;2.80;;
69417;SDS011;56610;48.872;2.400;2022-08-20T05:36:14;10.48;;;3.08;;
69417;SDS011;56610;48.872;2.400;2022-08-20T05:38:40;11.00;;;2.72;;
69417;SDS011;56610;48.872;2.400;2022-08-20T05:41:06;11.93;;;2.70;;
69417;SDS011;56610;48.872;2.400;2022-08-20T05:43:32;8.57;;;2.35;;
69417;SDS011;56610;48.872;2.400;2022-08-20T05:45:58;12.10;;;2.67;;
69417;SDS011;56610;48.872;2.400;2022-08-20T05:48:24;9.82;;;2.75;;
69417;SDS011;56610;48.872;2.400;2022-08-20T05:50:50;8.85;;;2.92;;
69417;SDS011;56610;48.872;2.400;2022-08-20T05:55:44;9.07;;;2.92;;
69417;SDS011;56610;48.872;2.400;2022-08-20T05:58:15;9.63;;;2.63;;
69417;SDS011;56610;48.872;2.400;2022-08-20T06:00:45;7.75;;;2.60;;
69417;SDS011;56610;48.872;2.400;2022-08-20T06:03:11;8.38;;;2.28;;
69417;SDS011;56610;48.872;2.400;2022-08-20T06:05:55;9.27;;;2.60;;
69417;SDS011;56610;48.872;2.400;2022-08-20T06:08:21;7.15;;;2.40;;
69417;SDS011;56610;48.872;2.400;2022-08-20T06:10:47;7.03;;;2.42;;
69417;SDS011;56610;48.872;2.400;2022-08-20T06:13:15;10.95;;;2.50;;
69417;SDS011;56610;48.872;2.400;2022-08-20T06:15:41;11.38;;;2.47;;
69417;SDS011;56610;48.872;2.400;2022-08-20T06:18:07;8.32;;;2.70;;
69417;SDS011;56610;48.872;2.400;2022-08-20T06:20:34;7.63;;;2.70;;
69417;SDS011;56610;48.872;2.400;2022-08-20T06:23:01;7.18;;;2.58;;
69417;SDS011;56610;48.872;2.400;2022-08-20T06:25:27;10.52;;;2.92;;
69417;SDS011;56610;48.872;2.400;2022-08-20T06:27:53;8.35;;;2.70;;
69417;SDS011;56610;48.872;2.400;2022-08-20T06:30:19;7.85;;;2.60;;
69417;SDS011;56610;48.872;2.400;2022-08-20T06:32:44;7.82;;;2.65;;
69417;SDS011;56610;48.872;2.400;2022-08-20T06:35:10;7.50;;;2.35;;
69417;SDS011;56610;48.872;2.400;2022-08-20T06:37:37;12.13;;;2.67;;
69417;SDS011;56610;48.872;2.400;2022-08-20T06:42:32;12.82;;;2.65;;
69417;SDS011;56610;48.872;2.400;2022-08-20T06:44:59;9.98;;;2.70;;
69417;SDS011;56610;48.872;2.400;2022-08-20T06:47:29;13.18;;;3.30;;
69417;SDS011;56610;48.872;2.400;2022-08-20T06:49:55;10.55;;;2.55;;
69417;SDS011;56610;48.872;2.400;2022-08-20T06:52:21;10.68;;;2.80;;
69417;SDS011;56610;48.872;2.400;2022-08-20T06:54:47;9.40;;;3.03;;
69417;SDS011;56610;48.872;2.400;2022-08-20T06:57:13;8.30;;;2.60;;
69417;SDS011;56610;48.872;2.400;2022-08-20T06:59:39;10.23;;;2.45;;
69417;SDS011;56610;48.872;2.400;2022-08-20T07:02:05;10.88;;;3.00;;
69417;SDS011;56610;48.872;2.400;2022-08-20T07:04:31;10.32;;;2.65;;
69417;SDS011;56610;48.872;2.400;2022-08-20T07:06:57;12.35;;;3.15;;
69417;SDS011;56610;48.872;2.400;2022-08-20T07:09:23;9.20;;;2.50;;
69417;SDS011;56610;48.872;2.400;2022-08-20T07:12:10;10.68;;;2.83;;
69417;SDS011;56610;48.872;2.400;2022-08-20T07:14:36;8.95;;;2.88;;
69417;SDS011;56610;48.872;2.400;2022-08-20T07:17:02;10.65;;;2.75;;
69417;SDS011;56610;48.872;2.400;2022-08-20T07:19:28;12.75;;;2.97;;
69417;SDS011;56610;48.872;2.400;2022-08-20T07:21:55;10.13;;;2.50;;
69417;SDS011;56610;48.872;2.400;2022-08-20T07:24:21;8.20;;;2.55;;
69417;SDS011;56610;48.872;2.400;2022-08-20T07:26:46;11.35;;;2.80;;
69417;SDS011;56610;48.872;2.400;2022-08-20T07:29:15;13.23;;;3.15;;
69417;SDS011;56610;48.872;2.400;2022-08-20T07:31:40;12.55;;;3.15;;
69417;SDS011;56610;48.872;2.400;2022-08-20T07:34:24;10.38;;;3.15;;
69417;SDS011;56610;48.872;2.400;2022-08-20T07:36:50;8.77;;;3.50;;
69417;SDS011;56610;48.872;2.400;2022-08-20T07:39:16;10.73;;;3.35;;
69417;SDS011;56610;48.872;2.400;2022-08-20T07:41:42;13.38;;;3.05;;
69417;SDS011;56610;48.872;2.400;2022-08-20T07:44:08;9.93;;;2.70;;
69417;SDS011;56610;48.872;2.400;2022-08-20T07:46:33;8.05;;;2.60;;
69417;SDS011;56610;48.872;2.400;2022-08-20T07:48:59;12.75;;;2.90;;
69417;SDS011;56610;48.872;2.400;2022-08-20T07:51:25;10.18;;;3.08;;
69417;SDS011;56610;48.872;2.400;2022-08-20T07:53:50;12.00;;;3.08;;
69417;SDS011;56610;48.872;2.400;2022-08-20T07:56:20;10.07;;;3.13;;
69417;SDS011;56610;48.872;2.400;2022-08-20T07:58:52;13.55;;;3.42;;
69417;SDS011;56610;48.872;2.400;2022-08-20T08:01:20;12.32;;;3.00;;
69417;SDS011;56610;48.872;2.400;2022-08-20T08:03:49;13.00;;;3.10;;
69417;SDS011;56610;48.872;2.400;2022-08-20T08:06:16;7.80;;;2.47;;
69417;SDS011;56610;48.872;2.400;2022-08-20T08:08:44;10.73;;;3.40;;
69417;SDS011;56610;48.872;2.400;2022-08-20T08:11:10;15.15;;;2.92;;
69417;SDS011;56610;48.872;2.400;2022-08-20T08:13:37;11.25;;;2.83;;
69417;SDS011;56610;48.872;2.400;2022-08-20T08:16:04;8.70;;;2.65;;
69417;SDS011;56610;48.872;2.400;2022-08-20T08:21:08;12.67;;;3.17;;
69417;SDS011;56610;48.872;2.400;2022-08-20T08:23:39;9.93;;;2.47;;
69417;SDS011;56610;48.872;2.400;2022-08-20T08:26:12;9.40;;;2.70;;
69417;SDS011;56610;48.872;2.400;2022-08-20T08:28:39;12.10;;;3.75;;
69417;SDS011;56610;48.872;2.400;2022-08-20T08:31:07;11.90;;;3.15;;
69417;SDS011;56610;48.872;2.400;2022-08-20T08:33:34;12.85;;;2.97;;
69417;SDS011;56610;48.872;2.400;2022-08-20T08:36:01;11.38;;;3.03;;
69417;SDS011;56610;48.872;2.400;2022-08-20T08:38:30;8.73;;;2.60;;
69417;SDS011;56610;48.872;2.400;2022-08-20T08:41:01;9.20;;;2.78;;
69417;SDS011;56610;48.872;2.400;2022-08-20T08:43:53;9.38;;;2.42;;
69417;SDS011;56610;48.872;2.400;2022-08-20T08:46:30;6.30;;;2.43;;
69417;SDS011;56610;48.872;2.400;2022-08-20T08:48:57;7.07;;;2.53;;
69417;SDS011;56610;48.872;2.400;2022-08-20T08:51:27;9.93;;;2.85;;
69417;SDS011;56610;48.872;2.400;2022-08-20T08:53:59;9.45;;;2.72;;
69417;SDS011;56610;48.872;2.400;2022-08-20T08:56:27;9.43;;;2.67;;
69417;SDS011;56610;48.872;2.400;2022-08-20T08:59:01;15.60;;;3.08;;
69417;SDS011;56610;48.872;2.400;2022-08-20T09:01:33;9.10;;;2.50;;
69417;SDS011;56610;48.872;2.400;2022-08-20T09:04:07;8.45;;;2.50;;
69417;SDS011;56610;48.872;2.400;2022-08-20T09:06:33;11.10;;;2.50;;
69417;SDS011;56610;48.872;2.400;2022-08-20T09:08:59;8.98;;;2.80;;
69417;SDS011;56610;48.872;2.400;2022-08-20T09:11:29;9.68;;;2.60;;
69417;SDS011;56610;48.872;2.400;2022-08-20T09:13:55;10.65;;;2.80;;
69417;SDS011;56610;48.872;2.400;2022-08-20T09:16:23;8.57;;;2.70;;
69417;SDS011;56610;48.872;2.400;2022-08-20T09:18:50;11.93;;;2.47;;
69417;SDS011;56610;48.872;2.400;2022-08-20T09:21:16;7.97;;;2.53;;
69417;SDS011;56610;48.872;2.400;2022-08-20T09:23:42;9.05;;;2.63;;
69417;SDS011;56610;48.872;2.400;2022-08-20T09:26:08;11.00;;;2.65;;
69417;SDS011;56610;48.872;2.400;2022-08-20T09:28:34;8.00;;;2.15;;
69417;SDS011;56610;48.872;2.400;2022-08-20T09:31:00;9.02;;;2.80;;
69417;SDS011;56610;48.872;2.400;2022-08-20T09:33:26;11.38;;;3.15;;
69417;SDS011;56610;48.872;2.400;2022-08-20T09:35:52;8.27;;;2.63;;
69417;SDS011;56610;48.872;2.400;2022-08-20T09:38:18;7.65;;;2.10;;
69417;SDS011;56610;48.872;2.400;2022-08-20T09:40:44;6.13;;;2.20;;
69417;SDS011;56610;48.872;2.400;2022-08-20T09:43:09;8.02;;;2.47;;
69417;SDS011;56610;48.872;2.400;2022-08-20T09:45:35;10.25;;;2.65;;
69417;SDS011;56610;48.872;2.400;2022-08-20T09:48:01;9.02;;;2.35;;
69417;SDS011;56610;48.872;2.400;2022-08-20T09:50:32;12.82;;;2.85;;
69417;SDS011;56610;48.872;2.400;2022-08-20T09:53:00;8.07;;;2.05;;
69417;SDS011;56610;48.872;2.400;2022-08-20T09:57:56;6.95;;;2.60;;
69417;SDS011;56610;48.872;2.400;2022-08-20T10:00:23;8.88;;;2.65;;
69417;SDS011;56610;48.872;2.400;2022-08-20T10:02:48;8.80;;;2.40;;
69417;SDS011;56610;48.872;2.400;2022-08-20T10:05:14;5.88;;;2.33;;
69417;SDS011;56610;48.872;2.400;2022-08-20T10:07:40;7.93;;;2.47;;
69417;SDS011;56610;48.872;2.400;2022-08-20T10:10:07;10.00;;;2.30;;
69417;SDS011;56610;48.872;2.400;2022-08-20T10:12:35;7.07;;;2.03;;
69417;SDS011;56610;48.872;2.400;2022-08-20T10:15:00;7.78;;;2.92;;
69417;SDS011;56610;48.872;2.400;2022-08-20T10:17:26;11.00;;;2.85;;
69417;SDS011;56610;48.872;2.400;2022-08-20T10:19:52;9.07;;;2.30;;
69417;SDS011;56610;48.872;2.400;2022-08-20T10:22:18;5.28;;;1.92;;
69417;SDS011;56610;48.872;2.400;2022-08-20T10:24:43;7.82;;;2.33;;
69417;SDS011;56610;48.872;2.400;2022-08-20T10:27:09;6.93;;;1.92;;
69417;SDS011;56610;48.872;2.400;2022-08-20T10:29:34;8.35;;;2.45;;
69417;SDS011;56610;48.872;2.400;2022-08-20T10:32:11;6.47;;;1.92;;
69417;SDS011;56610;48.872;2.400;2022-08-20T10:34:52;8.82;;;2.63;;
69417;SDS011;56610;48.872;2.400;2022-08-20T10:37:20;9.18;;;2.70;;
69417;SDS011;56610;48.872;2.400;2022-08-20T10:39:47;8.57;;;2.40;;
69417;SDS011;56610;48.872;2.400;2022-08-20T10:42:13;6.57;;;2.17;;
69417;SDS011;56610;48.872;2.400;2022-08-20T10:44:38;8.35;;;2.47;;
69417;SDS011;56610;48.872;2.400;2022-08-20T10:49:39;6.75;;;2.15;;
69417;SDS011;56610;48.872;2.400;2022-08-20T10:52:04;6.97;;;1.88;;
69417;SDS011;56610;48.872;2.400;2022-08-20T10:54:30;10.15;;;2.55;;
69417;SDS011;56610;48.872;2.400;2022-08-20T10:56:59;5.25;;;1.88;;
69417;SDS011;56610;48.872;2.400;2022-08-20T10:59:26;6.80;;;2.25;;
69417;SDS011;56610;48.872;2.400;2022-08-20T11:01:52;4.07;;;1.85;;
69417;SDS011;56610;48.872;2.400;2022-08-20T11:04:17;7.60;;;3.03;;
69417;SDS011;56610;48.872;2.400;2022-08-20T11:06:43;6.93;;;2.53;;
69417;SDS011;56610;48.872;2.400;2022-08-20T11:09:08;4.68;;;2.30;;
69417;SDS011;56610;48.872;2.400;2022-08-20T11:11:34;7.05;;;2.22;;
69417;SDS011;56610;48.872;2.400;2022-08-20T11:13:59;5.00;;;1.92;;
69417;SDS011;56610;48.872;2.400;2022-08-20T11:16:25;5.28;;;1.95;;
69417;SDS011;56610;48.872;2.400;2022-08-20T11:18:51;5.70;;;1.88;;
69417;SDS011;56610;48.872;2.400;2022-08-20T11:21:16;3.80;;;1.85;;
69417;SDS011;56610;48.872;2.400;2022-08-20T11:23:42;5.13;;;1.73;;
69417;SDS011;56610;48.872;2.400;2022-08-20T11:26:07;5.30;;;2.10;;
69417;SDS011;56610;48.872;2.400;2022-08-20T11:28:33;5.30;;;1.92;;
69417;SDS011;56610;48.872;2.400;2022-08-20T11:30:59;5.93;;;2.22;;
69417;SDS011;56610;48.872;2.400;2022-08-20T11:33:25;5.90;;;2.30;;
69417;SDS011;56610;48.872;2.400;2022-08-20T11:35:51;7.60;;;2.50;;
69417;SDS011;56610;48.872;2.400;2022-08-20T11:38:17;6.15;;;2.00;;
69417;SDS011;56610;48.872;2.400;2022-08-20T11:40:43;5.70;;;2.35;;
69417;SDS011;56610;48.872;2.400;2022-08-20T11:43:10;6.50;;;2.38;;
69417;SDS011;56610;48.872;2.400;2022-08-20T11:45:36;7.65;;;2.53;;
69417;SDS011;56610;48.872;2.400;2022-08-20T11:48:02;4.60;;;2.00;;
69417;SDS011;56610;48.872;2.400;2022-08-20T11:50:27;5.82;;;2.20;;
69417;SDS011;56610;48.872;2.400;2022-08-20T11:52:53;6.35;;;2.08;;
69417;SDS011;56610;48.872;2.400;2022-08-20T11:55:19;8.30;;;3.35;;
69417;SDS011;56610;48.872;2.400;2022-08-20T11:57:46;7.65;;;2.55;;
69417;SDS011;56610;48.872;2.400;2022-08-20T12:00:17;5.82;;;2.17;;
69417;SDS011;56610;48.872;2.400;2022-08-20T12:02:45;7.45;;;1.92;;
69417;SDS011;56610;48.872;2.400;2022-08-20T12:05:11;6.07;;;2.38;;
69417;SDS011;56610;48.872;2.400;2022-08-20T12:07:37;5.43;;;2.60;;
69417;SDS011;56610;48.872;2.400;2022-08-20T12:10:04;4.50;;;2.20;;
69417;SDS011;56610;48.872;2.400;2022-08-20T12:12:31;5.22;;;2.10;;
69417;SDS011;56610;48.872;2.400;2022-08-20T12:14:56;5.63;;;2.35;;
69417;SDS011;56610;48.872;2.400;2022-08-20T12:17:24;4.72;;;2.10;;
69417;SDS011;56610;48.872;2.400;2022-08-20T12:19:52;4.78;;;2.22;;
69417;SDS011;56610;48.872;2.400;2022-08-20T12:22:19;7.97;;;2.50;;
69417;SDS011;56610;48.872;2.400;2022-08-20T12:24:45;4.95;;;2.22;;
69417;SDS011;56610;48.872;2.400;2022-08-20T12:27:13;4.88;;;2.20;;
69417;SDS011;56610;48.872;2.400;2022-08-20T12:29:45;5.00;;;2.47;;
69417;SDS011;56610;48.872;2.400;2022-08-20T12:32:13;6.78;;;2.25;;
69417;SDS011;56610;48.872;2.400;2022-08-20T12:34:40;5.87;;;1.90;;
69417;SDS011;56610;48.872;2.400;2022-08-20T12:37:10;4.25;;;2.08;;
69417;SDS011;56610;48.872;2.400;2022-08-20T12:39:42;5.70;;;2.35;;
69417;SDS011;56610;48.872;2.400;2022-08-20T12:42:10;5.32;;;2.17;;
69417;SDS011;56610;48.872;2.400;2022-08-20T12:44:36;5.13;;;2.17;;
69417;SDS011;56610;48.872;2.400;2022-08-20T12:47:10;5.03;;;2.10;;
69417;SDS011;56610;48.872;2.400;2022-08-20T12:49:36;5.50;;;1.98;;
69417;SDS011;56610;48.872;2.400;2022-08-20T12:52:03;6.03;;;2.10;;
69417;SDS011;56610;48.872;2.400;2022-08-20T12:54:29;4.97;;;2.13;;
69417;SDS011;56610;48.872;2.400;2022-08-20T12:56:55;7.55;;;2.40;;
69417;SDS011;56610;48.872;2.400;2022-08-20T12:59:41;7.05;;;2.67;;
69417;SDS011;56610;48.872;2.400;2022-08-20T13:02:07;4.07;;;1.98;;
69417;SDS011;56610;48.872;2.400;2022-08-20T13:04:32;4.90;;;2.20;;
69417;SDS011;56610;48.872;2.400;2022-08-20T13:07:02;5.78;;;2.20;;
69417;SDS011;56610;48.872;2.400;2022-08-20T13:09:28;4.82;;;2.38;;
69417;SDS011;56610;48.872;2.400;2022-08-20T13:11:54;5.78;;;2.22;;
69417;SDS011;56610;48.872;2.400;2022-08-20T13:14:20;6.20;;;2.78;;
69417;SDS011;56610;48.872;2.400;2022-08-20T13:16:46;4.93;;;2.33;;
69417;SDS011;56610;48.872;2.400;2022-08-20T13:19:11;6.00;;;2.53;;
69417;SDS011;56610;48.872;2.400;2022-08-20T13:21:37;5.38;;;2.30;;
69417;SDS011;56610;48.872;2.400;2022-08-20T13:24:02;5.57;;;2.40;;
69417;SDS011;56610;48.872;2.400;2022-08-20T13:26:28;5.95;;;2.25;;
69417;SDS011;56610;48.872;2.400;2022-08-20T13:28:54;5.07;;;2.50;;
69417;SDS011;56610;48.872;2.400;2022-08-20T13:31:19;6.35;;;2.20;;
69417;SDS011;56610;48.872;2.400;2022-08-20T13:33:45;5.03;;;2.30;;
69417;SDS011;56610;48.872;2.400;2022-08-20T13:36:11;4.88;;;1.92;;
69417;SDS011;56610;48.872;2.400;2022-08-20T13:38:37;7.30;;;2.55;;
69417;SDS011;56610;48.872;2.400;2022-08-20T13:41:02;5.85;;;2.30;;
69417;SDS011;56610;48.872;2.400;2022-08-20T13:43:28;5.50;;;2.40;;
69417;SDS011;56610;48.872;2.400;2022-08-20T13:45:53;4.88;;;2.38;;
69417;SDS011;56610;48.872;2.400;2022-08-20T13:48:19;5.07;;;2.53;;
69417;SDS011;56610;48.872;2.400;2022-08-20T13:50:44;4.43;;;2.05;;
69417;SDS011;56610;48.872;2.400;2022-08-20T13:53:10;5.38;;;2.45;;
69417;SDS011;56610;48.872;2.400;2022-08-20T13:55:36;6.13;;;2.50;;
69417;SDS011;56610;48.872;2.400;2022-08-20T13:58:05;6.15;;;2.50;;
69417;SDS011;56610;48.872;2.400;2022-08-20T14:00:32;3.78;;;2.40;;
69417;SDS011;56610;48.872;2.400;2022-08-20T14:02:58;5.28;;;3.00;;
69417;SDS011;56610;48.872;2.400;2022-08-20T14:05:24;4.40;;;2.00;;
69417;SDS011;56610;48.872;2.400;2022-08-20T14:07:50;6.55;;;2.00;;
69417;SDS011;56610;48.872;2.400;2022-08-20T14:10:20;6.72;;;2.75;;
69417;SDS011;56610;48.872;2.400;2022-08-20T14:12:49;5.65;;;2.50;;
69417;SDS011;56610;48.872;2.400;2022-08-20T14:15:15;5.78;;;2.63;;
69417;SDS011;56610;48.872;2.400;2022-08-20T14:17:42;4.93;;;2.45;;
69417;SDS011;56610;48.872;2.400;2022-08-20T14:20:18;7.10;;;2.33;;
69417;SDS011;56610;48.872;2.400;2022-08-20T14:22:46;6.57;;;2.55;;
69417;SDS011;56610;48.872;2.400;2022-08-20T14:25:13;4.80;;;2.40;;
69417;SDS011;56610;48.872;2.400;2022-08-20T14:27:41;4.22;;;2.30;;
69417;SDS011;56610;48.872;2.400;2022-08-20T14:30:08;5.40;;;2.38;;
69417;SDS011;56610;48.872;2.400;2022-08-20T14:32:36;7.63;;;2.75;;
69417;SDS011;56610;48.872;2.400;2022-08-20T14:35:02;6.93;;;2.85;;
69417;SDS011;56610;48.872;2.400;2022-08-20T14:37:40;5.47;;;2.42;;
69417;SDS011;56610;48.872;2.400;2022-08-20T14:40:09;5.68;;;2.60;;
69417;SDS011;56610;48.872;2.400;2022-08-20T14:42:36;5.97;;;2.58;;
69417;SDS011;56610;48.872;2.400;2022-08-20T14:45:02;5.15;;;2.53;;
69417;SDS011;56610;48.872;2.400;2022-08-20T14:47:34;6.00;;;2.10;;
69417;SDS011;56610;48.872;2.400;2022-08-20T14:50:04;3.60;;;2.10;;
69417;SDS011;56610;48.872;2.400;2022-08-20T14:52:33;4.72;;;2.38;;
69417;SDS011;56610;48.872;2.400;2022-08-20T14:55:01;6.55;;;2.33;;
69417;SDS011;56610;48.872;2.400;2022-08-20T14:57:32;5.82;;;2.40;;
69417;SDS011;56610;48.872;2.400;2022-08-20T14:59:59;4.97;;;2.60;;
69417;SDS011;56610;48.872;2.400;2022-08-20T15:02:28;4.00;;;2.15;;
69417;SDS011;56610;48.872;2.400;2022-08-20T15:04:55;5.45;;;2.30;;
69417;SDS011;56610;48.872;2.400;2022-08-20T15:07:22;6.57;;;2.20;;
69417;SDS011;56610;48.872;2.400;2022-08-20T15:09:50;8.35;;;2.50;;
69417;SDS011;56610;48.872;2.400;2022-08-20T15:12:16;4.28;;;1.92;;
69417;SDS011;56610;48.872;2.400;2022-08-20T15:14:42;5.78;;;2.20;;
69417;SDS011;56610;48.872;2.400;2022-08-20T15:17:09;4.25;;;2.08;;